sensor_id;sensor_type;location;lat;lon;timestamp;P1;durP1;ratioP1;P2;durP2;ratioP2
4486;SDS011;2256;48.740;9.106;2022-08-19T00:01:16;26.27;;;16.70;;
4486;SDS011;2256;48.740;9.106;2022-08-19T00:03:43;30.53;;;16.10;;
4486;SDS011;2256;48.740;9.106;2022-08-19T00:06:10;26.83;;;17.00;;
4486;SDS011;2256;48.740;9.106;2022-08-19T00:08:38;27.20;;;17.60;;
4486;SDS011;2256;48.740;9.106;2022-08-19T00:11:05;28.27;;;16.77;;
4486;SDS011;2256;48.740;9.106;2022-08-19T00:13:32;33.10;;;16.90;;
4486;SDS011;2256;48.740;9.106;2022-08-19T00:16:00;29.43;;;17.23;;
4486;SDS011;2256;48.740;9.106;2022-08-19T00:18:27;26.30;;;16.83;;
4486;SDS011;2256;48.740;9.106;2022-08-19T00:20:54;26.60;;;16.67;;
4486;SDS011;2256;48.740;9.106;2022-08-19T00:23:21;29.07;;;17.43;;
4486;SDS011;2256;48.740;9.106;2022-08-19T00:25:49;28.47;;;17.10;;
4486;SDS011;2256;48.740;9.106;2022-08-19T00:28:17;29.00;;;16.70;;
4486;SDS011;2256;48.740;9.106;2022-08-19T00:30:43;26.73;;;16.07;;
4486;SDS011;2256;48.740;9.106;2022-08-19T00:33:10;30.50;;;16.87;;
4486;SDS011;2256;48.740;9.106;2022-08-19T00:35:38;33.07;;;16.30;;
4486;SDS011;2256;48.740;9.106;2022-08-19T00:38:05;28.50;;;17.40;;
4486;SDS011;2256;48.740;9.106;2022-08-19T00:40:32;36.50;;;17.00;;
4486;SDS011;2256;48.740;9.106;2022-08-19T00:43:00;26.67;;;16.93;;
4486;SDS011;2256;48.740;9.106;2022-08-19T00:45:33;31.73;;;16.90;;
4486;SDS011;2256;48.740;9.106;2022-08-19T00:48:00;34.97;;;17.20;;
4486;SDS011;2256;48.740;9.106;2022-08-19T00:50:31;29.40;;;17.63;;
4486;SDS011;2256;48.740;9.106;2022-08-19T00:52:59;29.07;;;16.77;;
4486;SDS011;2256;48.740;9.106;2022-08-19T00:55:29;36.00;;;18.33;;
4486;SDS011;2256;48.740;9.106;2022-08-19T00:58:00;29.57;;;16.83;;
4486;SDS011;2256;48.740;9.106;2022-08-19T01:00:33;30.70;;;17.43;;
4486;SDS011;2256;48.740;9.106;2022-08-19T01:03:02;39.20;;;17.67;;
4486;SDS011;2256;48.740;9.106;2022-08-19T01:05:29;35.70;;;19.13;;
4486;SDS011;2256;48.740;9.106;2022-08-19T01:07:58;35.40;;;19.17;;
4486;SDS011;2256;48.740;9.106;2022-08-19T01:10:27;36.37;;;19.13;;
4486;SDS011;2256;48.740;9.106;2022-08-19T01:12:57;33.50;;;16.90;;
4486;SDS011;2256;48.740;9.106;2022-08-19T01:15:29;32.83;;;18.63;;
4486;SDS011;2256;48.740;9.106;2022-08-19T01:18:00;31.73;;;18.07;;
4486;SDS011;2256;48.740;9.106;2022-08-19T01:20:30;31.77;;;17.40;;
4486;SDS011;2256;48.740;9.106;2022-08-19T01:23:00;32.43;;;19.20;;
4486;SDS011;2256;48.740;9.106;2022-08-19T01:25:29;28.40;;;17.30;;
4486;SDS011;2256;48.740;9.106;2022-08-19T01:27:58;30.33;;;17.60;;
4486;SDS011;2256;48.740;9.106;2022-08-19T01:30:26;35.90;;;18.60;;
4486;SDS011;2256;48.740;9.106;2022-08-19T01:32:55;30.90;;;17.10;;
4486;SDS011;2256;48.740;9.106;2022-08-19T01:35:25;35.60;;;17.40;;
4486;SDS011;2256;48.740;9.106;2022-08-19T01:37:54;36.87;;;17.87;;
4486;SDS011;2256;48.740;9.106;2022-08-19T01:40:26;34.57;;;19.33;;
4486;SDS011;2256;48.740;9.106;2022-08-19T01:42:54;35.10;;;18.43;;
4486;SDS011;2256;48.740;9.106;2022-08-19T01:45:22;36.97;;;19.60;;
4486;SDS011;2256;48.740;9.106;2022-08-19T01:47:51;31.90;;;19.47;;
4486;SDS011;2256;48.740;9.106;2022-08-19T01:50:18;32.80;;;17.70;;
4486;SDS011;2256;48.740;9.106;2022-08-19T01:52:45;33.60;;;19.80;;
4486;SDS011;2256;48.740;9.106;2022-08-19T01:55:13;29.30;;;18.40;;
4486;SDS011;2256;48.740;9.106;2022-08-19T01:57:44;30.10;;;18.13;;
4486;SDS011;2256;48.740;9.106;2022-08-19T02:00:16;40.13;;;21.70;;
4486;SDS011;2256;48.740;9.106;2022-08-19T02:02:48;43.03;;;18.53;;
4486;SDS011;2256;48.740;9.106;2022-08-19T02:05:14;36.30;;;19.93;;
4486;SDS011;2256;48.740;9.106;2022-08-19T02:07:42;35.57;;;18.93;;
4486;SDS011;2256;48.740;9.106;2022-08-19T02:10:12;39.33;;;21.00;;
4486;SDS011;2256;48.740;9.106;2022-08-19T02:12:40;35.20;;;20.00;;
4486;SDS011;2256;48.740;9.106;2022-08-19T02:15:08;41.60;;;20.63;;
4486;SDS011;2256;48.740;9.106;2022-08-19T02:17:35;34.40;;;19.77;;
4486;SDS011;2256;48.740;9.106;2022-08-19T02:20:03;38.00;;;20.20;;
4486;SDS011;2256;48.740;9.106;2022-08-19T02:22:31;37.57;;;21.43;;
4486;SDS011;2256;48.740;9.106;2022-08-19T02:24:58;33.90;;;21.03;;
4486;SDS011;2256;48.740;9.106;2022-08-19T02:27:24;33.83;;;20.60;;
4486;SDS011;2256;48.740;9.106;2022-08-19T02:29:51;37.13;;;21.70;;
4486;SDS011;2256;48.740;9.106;2022-08-19T02:32:19;39.90;;;21.67;;
4486;SDS011;2256;48.740;9.106;2022-08-19T02:34:46;39.03;;;21.37;;
4486;SDS011;2256;48.740;9.106;2022-08-19T02:37:14;43.10;;;22.70;;
4486;SDS011;2256;48.740;9.106;2022-08-19T02:39:55;38.87;;;22.90;;
4486;SDS011;2256;48.740;9.106;2022-08-19T02:42:21;35.97;;;21.40;;
4486;SDS011;2256;48.740;9.106;2022-08-19T02:44:48;38.10;;;22.80;;
4486;SDS011;2256;48.740;9.106;2022-08-19T02:47:16;40.60;;;22.60;;
4486;SDS011;2256;48.740;9.106;2022-08-19T02:49:46;39.10;;;21.27;;
4486;SDS011;2256;48.740;9.106;2022-08-19T02:52:13;44.47;;;22.90;;
4486;SDS011;2256;48.740;9.106;2022-08-19T02:54:40;42.03;;;23.50;;
4486;SDS011;2256;48.740;9.106;2022-08-19T02:57:07;44.47;;;23.33;;
4486;SDS011;2256;48.740;9.106;2022-08-19T02:59:34;42.97;;;22.73;;
4486;SDS011;2256;48.740;9.106;2022-08-19T03:02:00;43.80;;;23.97;;
4486;SDS011;2256;48.740;9.106;2022-08-19T03:04:27;46.00;;;23.10;;
4486;SDS011;2256;48.740;9.106;2022-08-19T03:06:56;42.87;;;24.03;;
4486;SDS011;2256;48.740;9.106;2022-08-19T03:09:22;43.07;;;24.33;;
4486;SDS011;2256;48.740;9.106;2022-08-19T03:11:49;51.97;;;24.40;;
4486;SDS011;2256;48.740;9.106;2022-08-19T03:14:16;45.53;;;22.97;;
4486;SDS011;2256;48.740;9.106;2022-08-19T03:16:45;46.77;;;24.70;;
4486;SDS011;2256;48.740;9.106;2022-08-19T03:19:13;44.93;;;25.33;;
4486;SDS011;2256;48.740;9.106;2022-08-19T03:21:43;46.27;;;23.67;;
4486;SDS011;2256;48.740;9.106;2022-08-19T03:24:12;40.90;;;23.77;;
4486;SDS011;2256;48.740;9.106;2022-08-19T03:26:41;37.83;;;23.97;;
4486;SDS011;2256;48.740;9.106;2022-08-19T03:29:09;45.80;;;25.50;;
4486;SDS011;2256;48.740;9.106;2022-08-19T03:31:36;50.30;;;26.30;;
4486;SDS011;2256;48.740;9.106;2022-08-19T03:34:04;49.60;;;26.07;;
4486;SDS011;2256;48.740;9.106;2022-08-19T03:36:31;41.67;;;23.87;;
4486;SDS011;2256;48.740;9.106;2022-08-19T03:38:59;50.90;;;26.10;;
4486;SDS011;2256;48.740;9.106;2022-08-19T03:41:29;41.77;;;25.00;;
4486;SDS011;2256;48.740;9.106;2022-08-19T03:43:58;44.50;;;24.40;;
4486;SDS011;2256;48.740;9.106;2022-08-19T03:46:26;46.47;;;25.53;;
4486;SDS011;2256;48.740;9.106;2022-08-19T03:48:55;46.87;;;25.67;;
4486;SDS011;2256;48.740;9.106;2022-08-19T03:51:24;46.37;;;27.13;;
4486;SDS011;2256;48.740;9.106;2022-08-19T03:53:53;45.47;;;25.50;;
4486;SDS011;2256;48.740;9.106;2022-08-19T03:56:21;46.03;;;24.90;;
4486;SDS011;2256;48.740;9.106;2022-08-19T03:58:51;50.10;;;26.43;;
4486;SDS011;2256;48.740;9.106;2022-08-19T04:01:19;48.53;;;26.67;;
4486;SDS011;2256;48.740;9.106;2022-08-19T04:03:47;49.27;;;26.40;;
4486;SDS011;2256;48.740;9.106;2022-08-19T04:06:15;44.30;;;26.83;;
4486;SDS011;2256;48.740;9.106;2022-08-19T04:08:45;45.70;;;26.73;;
4486;SDS011;2256;48.740;9.106;2022-08-19T04:11:13;45.27;;;27.10;;
4486;SDS011;2256;48.740;9.106;2022-08-19T04:13:42;46.10;;;27.70;;
4486;SDS011;2256;48.740;9.106;2022-08-19T04:16:10;41.77;;;26.00;;
4486;SDS011;2256;48.740;9.106;2022-08-19T04:18:38;45.90;;;26.63;;
4486;SDS011;2256;48.740;9.106;2022-08-19T04:21:05;49.43;;;26.90;;
4486;SDS011;2256;48.740;9.106;2022-08-19T04:23:34;49.67;;;26.63;;
4486;SDS011;2256;48.740;9.106;2022-08-19T04:26:02;46.50;;;26.60;;
4486;SDS011;2256;48.740;9.106;2022-08-19T04:28:28;55.90;;;27.93;;
4486;SDS011;2256;48.740;9.106;2022-08-19T04:30:55;60.00;;;30.60;;
4486;SDS011;2256;48.740;9.106;2022-08-19T04:33:24;48.23;;;26.80;;
4486;SDS011;2256;48.740;9.106;2022-08-19T04:35:53;49.23;;;27.67;;
4486;SDS011;2256;48.740;9.106;2022-08-19T04:38:21;50.47;;;28.07;;
4486;SDS011;2256;48.740;9.106;2022-08-19T04:40:49;53.27;;;27.50;;
4486;SDS011;2256;48.740;9.106;2022-08-19T04:43:36;62.00;;;30.20;;
4486;SDS011;2256;48.740;9.106;2022-08-19T04:46:04;48.87;;;28.00;;
4486;SDS011;2256;48.740;9.106;2022-08-19T04:48:34;57.27;;;29.60;;
4486;SDS011;2256;48.740;9.106;2022-08-19T04:51:01;54.27;;;27.53;;
4486;SDS011;2256;48.740;9.106;2022-08-19T04:53:34;50.50;;;27.30;;
4486;SDS011;2256;48.740;9.106;2022-08-19T04:56:03;55.83;;;31.40;;
4486;SDS011;2256;48.740;9.106;2022-08-19T04:58:32;51.93;;;29.43;;
4486;SDS011;2256;48.740;9.106;2022-08-19T05:00:59;52.83;;;28.93;;
4486;SDS011;2256;48.740;9.106;2022-08-19T05:03:26;59.43;;;29.13;;
4486;SDS011;2256;48.740;9.106;2022-08-19T05:05:59;50.43;;;27.03;;
4486;SDS011;2256;48.740;9.106;2022-08-19T05:08:32;58.13;;;30.53;;
4486;SDS011;2256;48.740;9.106;2022-08-19T05:11:00;53.73;;;30.03;;
4486;SDS011;2256;48.740;9.106;2022-08-19T05:13:27;48.73;;;28.50;;
4486;SDS011;2256;48.740;9.106;2022-08-19T05:15:55;52.37;;;30.90;;
4486;SDS011;2256;48.740;9.106;2022-08-19T05:18:22;53.20;;;29.60;;
4486;SDS011;2256;48.740;9.106;2022-08-19T05:21:08;51.93;;;30.77;;
4486;SDS011;2256;48.740;9.106;2022-08-19T05:23:52;63.63;;;32.17;;
4486;SDS011;2256;48.740;9.106;2022-08-19T05:26:19;57.40;;;31.90;;
4486;SDS011;2256;48.740;9.106;2022-08-19T05:28:46;55.13;;;30.77;;
4486;SDS011;2256;48.740;9.106;2022-08-19T05:31:13;55.50;;;29.37;;
4486;SDS011;2256;48.740;9.106;2022-08-19T05:33:40;53.77;;;29.10;;
4486;SDS011;2256;48.740;9.106;2022-08-19T05:36:08;58.90;;;31.37;;
4486;SDS011;2256;48.740;9.106;2022-08-19T05:38:35;59.80;;;31.40;;
4486;SDS011;2256;48.740;9.106;2022-08-19T05:41:05;51.40;;;28.20;;
4486;SDS011;2256;48.740;9.106;2022-08-19T05:43:33;52.00;;;29.30;;
4486;SDS011;2256;48.740;9.106;2022-08-19T05:46:00;47.10;;;28.90;;
4486;SDS011;2256;48.740;9.106;2022-08-19T05:48:27;50.20;;;29.47;;
4486;SDS011;2256;48.740;9.106;2022-08-19T05:50:53;61.43;;;28.13;;
4486;SDS011;2256;48.740;9.106;2022-08-19T05:53:23;49.97;;;27.70;;
4486;SDS011;2256;48.740;9.106;2022-08-19T05:55:50;52.43;;;28.03;;
4486;SDS011;2256;48.740;9.106;2022-08-19T05:58:16;45.53;;;26.73;;
4486;SDS011;2256;48.740;9.106;2022-08-19T06:00:43;53.23;;;27.97;;
4486;SDS011;2256;48.740;9.106;2022-08-19T06:03:10;48.00;;;28.50;;
4486;SDS011;2256;48.740;9.106;2022-08-19T06:05:37;49.60;;;28.80;;
4486;SDS011;2256;48.740;9.106;2022-08-19T06:08:04;59.83;;;29.60;;
4486;SDS011;2256;48.740;9.106;2022-08-19T06:10:33;60.07;;;28.70;;
4486;SDS011;2256;48.740;9.106;2022-08-19T06:13:00;50.50;;;27.27;;
4486;SDS011;2256;48.740;9.106;2022-08-19T06:15:27;45.60;;;27.90;;
4486;SDS011;2256;48.740;9.106;2022-08-19T06:17:54;49.23;;;27.30;;
4486;SDS011;2256;48.740;9.106;2022-08-19T06:20:21;53.83;;;27.17;;
4486;SDS011;2256;48.740;9.106;2022-08-19T06:22:48;59.93;;;29.50;;
4486;SDS011;2256;48.740;9.106;2022-08-19T06:25:16;51.37;;;28.30;;
4486;SDS011;2256;48.740;9.106;2022-08-19T06:27:45;48.67;;;27.93;;
4486;SDS011;2256;48.740;9.106;2022-08-19T06:30:12;47.07;;;27.57;;
4486;SDS011;2256;48.740;9.106;2022-08-19T06:32:39;47.27;;;27.70;;
4486;SDS011;2256;48.740;9.106;2022-08-19T06:35:06;48.27;;;27.93;;
4486;SDS011;2256;48.740;9.106;2022-08-19T06:37:34;48.20;;;28.10;;
4486;SDS011;2256;48.740;9.106;2022-08-19T06:40:02;49.50;;;29.47;;
4486;SDS011;2256;48.740;9.106;2022-08-19T06:42:30;55.33;;;30.00;;
4486;SDS011;2256;48.740;9.106;2022-08-19T06:44:59;45.00;;;26.60;;
4486;SDS011;2256;48.740;9.106;2022-08-19T06:47:28;56.50;;;27.30;;
4486;SDS011;2256;48.740;9.106;2022-08-19T06:49:56;54.13;;;28.00;;
4486;SDS011;2256;48.740;9.106;2022-08-19T06:52:26;55.23;;;27.80;;
4486;SDS011;2256;48.740;9.106;2022-08-19T06:54:53;44.67;;;26.37;;
4486;SDS011;2256;48.740;9.106;2022-08-19T06:57:21;47.97;;;27.20;;
4486;SDS011;2256;48.740;9.106;2022-08-19T06:59:48;42.77;;;24.67;;
4486;SDS011;2256;48.740;9.106;2022-08-19T07:02:17;50.80;;;27.17;;
4486;SDS011;2256;48.740;9.106;2022-08-19T07:04:45;41.47;;;23.50;;
4486;SDS011;2256;48.740;9.106;2022-08-19T07:07:13;50.20;;;27.27;;
4486;SDS011;2256;48.740;9.106;2022-08-19T07:09:41;42.20;;;25.30;;
4486;SDS011;2256;48.740;9.106;2022-08-19T07:12:11;44.83;;;25.80;;
4486;SDS011;2256;48.740;9.106;2022-08-19T07:14:40;47.00;;;25.20;;
4486;SDS011;2256;48.740;9.106;2022-08-19T07:17:09;45.93;;;25.40;;
4486;SDS011;2256;48.740;9.106;2022-08-19T07:19:38;43.00;;;25.47;;
4486;SDS011;2256;48.740;9.106;2022-08-19T07:22:06;44.83;;;26.70;;
4486;SDS011;2256;48.740;9.106;2022-08-19T07:24:34;46.23;;;27.67;;
4486;SDS011;2256;48.740;9.106;2022-08-19T07:27:02;42.77;;;24.07;;
4486;SDS011;2256;48.740;9.106;2022-08-19T07:29:30;44.07;;;26.17;;
4486;SDS011;2256;48.740;9.106;2022-08-19T07:31:59;51.60;;;26.37;;
4486;SDS011;2256;48.740;9.106;2022-08-19T07:34:28;44.77;;;24.77;;
4486;SDS011;2256;48.740;9.106;2022-08-19T07:36:57;42.93;;;24.30;;
4486;SDS011;2256;48.740;9.106;2022-08-19T07:39:25;45.80;;;25.10;;
4486;SDS011;2256;48.740;9.106;2022-08-19T07:41:54;43.03;;;24.93;;
4486;SDS011;2256;48.740;9.106;2022-08-19T07:44:22;40.10;;;23.97;;
4486;SDS011;2256;48.740;9.106;2022-08-19T07:46:50;44.03;;;25.37;;
4486;SDS011;2256;48.740;9.106;2022-08-19T07:49:19;44.37;;;24.77;;
4486;SDS011;2256;48.740;9.106;2022-08-19T07:51:48;42.63;;;24.43;;
4486;SDS011;2256;48.740;9.106;2022-08-19T07:54:19;37.77;;;22.03;;
4486;SDS011;2256;48.740;9.106;2022-08-19T07:56:47;43.07;;;26.00;;
4486;SDS011;2256;48.740;9.106;2022-08-19T07:59:14;37.47;;;23.43;;
4486;SDS011;2256;48.740;9.106;2022-08-19T08:01:42;43.57;;;23.20;;
4486;SDS011;2256;48.740;9.106;2022-08-19T08:04:10;39.27;;;22.87;;
4486;SDS011;2256;48.740;9.106;2022-08-19T08:06:55;38.13;;;22.27;;
4486;SDS011;2256;48.740;9.106;2022-08-19T08:09:41;35.90;;;23.27;;
4486;SDS011;2256;48.740;9.106;2022-08-19T08:12:10;43.03;;;24.47;;
4486;SDS011;2256;48.740;9.106;2022-08-19T08:14:40;39.73;;;23.30;;
4486;SDS011;2256;48.740;9.106;2022-08-19T08:17:11;38.17;;;23.63;;
4486;SDS011;2256;48.740;9.106;2022-08-19T08:19:39;55.60;;;27.10;;
4486;SDS011;2256;48.740;9.106;2022-08-19T08:22:07;35.50;;;22.33;;
4486;SDS011;2256;48.740;9.106;2022-08-19T08:24:56;41.23;;;23.87;;
4486;SDS011;2256;48.740;9.106;2022-08-19T08:27:24;41.17;;;24.67;;
4486;SDS011;2256;48.740;9.106;2022-08-19T08:29:54;39.40;;;22.63;;
4486;SDS011;2256;48.740;9.106;2022-08-19T08:32:20;43.20;;;24.10;;
4486;SDS011;2256;48.740;9.106;2022-08-19T08:34:47;42.20;;;22.80;;
4486;SDS011;2256;48.740;9.106;2022-08-19T08:37:14;43.90;;;22.50;;
4486;SDS011;2256;48.740;9.106;2022-08-19T08:39:41;39.17;;;23.77;;
4486;SDS011;2256;48.740;9.106;2022-08-19T08:42:12;37.77;;;22.90;;
4486;SDS011;2256;48.740;9.106;2022-08-19T08:44:48;40.30;;;23.60;;
4486;SDS011;2256;48.740;9.106;2022-08-19T08:47:22;42.70;;;23.33;;
4486;SDS011;2256;48.740;9.106;2022-08-19T08:49:54;54.10;;;22.50;;
4486;SDS011;2256;48.740;9.106;2022-08-19T08:52:26;38.93;;;22.53;;
4486;SDS011;2256;48.740;9.106;2022-08-19T08:54:57;43.70;;;22.50;;
4486;SDS011;2256;48.740;9.106;2022-08-19T08:57:29;37.03;;;21.80;;
4486;SDS011;2256;48.740;9.106;2022-08-19T09:00:03;39.00;;;22.73;;
4486;SDS011;2256;48.740;9.106;2022-08-19T09:02:34;50.13;;;22.60;;
4486;SDS011;2256;48.740;9.106;2022-08-19T09:05:01;35.70;;;21.10;;
4486;SDS011;2256;48.740;9.106;2022-08-19T09:07:31;37.93;;;22.43;;
4486;SDS011;2256;48.740;9.106;2022-08-19T09:10:10;33.70;;;20.20;;
4486;SDS011;2256;48.740;9.106;2022-08-19T09:12:47;40.73;;;21.50;;
4486;SDS011;2256;48.740;9.106;2022-08-19T09:15:25;47.30;;;21.90;;
4486;SDS011;2256;48.740;9.106;2022-08-19T09:17:59;39.10;;;21.23;;
4486;SDS011;2256;48.740;9.106;2022-08-19T09:20:28;30.83;;;19.40;;
4486;SDS011;2256;48.740;9.106;2022-08-19T09:22:56;36.73;;;21.03;;
4486;SDS011;2256;48.740;9.106;2022-08-19T09:25:24;36.80;;;20.40;;
4486;SDS011;2256;48.740;9.106;2022-08-19T09:27:53;36.50;;;21.33;;
4486;SDS011;2256;48.740;9.106;2022-08-19T09:30:22;42.93;;;21.73;;
4486;SDS011;2256;48.740;9.106;2022-08-19T09:32:51;34.40;;;20.50;;
4486;SDS011;2256;48.740;9.106;2022-08-19T09:35:18;37.17;;;20.10;;
4486;SDS011;2256;48.740;9.106;2022-08-19T09:37:47;33.60;;;21.70;;
4486;SDS011;2256;48.740;9.106;2022-08-19T09:40:14;43.17;;;21.70;;
4486;SDS011;2256;48.740;9.106;2022-08-19T09:42:42;34.30;;;20.37;;
4486;SDS011;2256;48.740;9.106;2022-08-19T09:45:11;40.80;;;20.90;;
4486;SDS011;2256;48.740;9.106;2022-08-19T09:47:37;35.90;;;20.17;;
4486;SDS011;2256;48.740;9.106;2022-08-19T09:50:05;38.37;;;20.90;;
4486;SDS011;2256;48.740;9.106;2022-08-19T09:52:33;34.63;;;20.00;;
4486;SDS011;2256;48.740;9.106;2022-08-19T09:55:01;29.83;;;19.83;;
4486;SDS011;2256;48.740;9.106;2022-08-19T09:57:28;39.40;;;19.57;;
4486;SDS011;2256;48.740;9.106;2022-08-19T09:59:55;31.17;;;18.30;;
4486;SDS011;2256;48.740;9.106;2022-08-19T10:02:23;28.43;;;19.10;;
4486;SDS011;2256;48.740;9.106;2022-08-19T10:04:50;34.17;;;18.10;;
4486;SDS011;2256;48.740;9.106;2022-08-19T10:07:34;29.40;;;17.60;;
4486;SDS011;2256;48.740;9.106;2022-08-19T10:10:01;29.20;;;18.27;;
4486;SDS011;2256;48.740;9.106;2022-08-19T10:12:28;38.20;;;17.53;;
4486;SDS011;2256;48.740;9.106;2022-08-19T10:14:55;33.57;;;16.60;;
4486;SDS011;2256;48.740;9.106;2022-08-19T10:17:23;31.83;;;16.90;;
4486;SDS011;2256;48.740;9.106;2022-08-19T10:19:51;29.70;;;16.97;;
4486;SDS011;2256;48.740;9.106;2022-08-19T10:22:18;32.43;;;17.47;;
4486;SDS011;2256;48.740;9.106;2022-08-19T10:24:45;27.40;;;17.20;;
4486;SDS011;2256;48.740;9.106;2022-08-19T10:27:12;28.93;;;18.00;;
4486;SDS011;2256;48.740;9.106;2022-08-19T10:29:39;27.20;;;15.93;;
4486;SDS011;2256;48.740;9.106;2022-08-19T10:32:06;40.10;;;18.50;;
4486;SDS011;2256;48.740;9.106;2022-08-19T10:34:37;26.10;;;16.60;;
4486;SDS011;2256;48.740;9.106;2022-08-19T10:37:05;28.20;;;15.87;;
4486;SDS011;2256;48.740;9.106;2022-08-19T10:39:32;24.43;;;15.00;;
4486;SDS011;2256;48.740;9.106;2022-08-19T10:42:03;22.90;;;14.87;;
4486;SDS011;2256;48.740;9.106;2022-08-19T10:44:31;24.90;;;14.70;;
4486;SDS011;2256;48.740;9.106;2022-08-19T10:47:00;29.50;;;14.20;;
4486;SDS011;2256;48.740;9.106;2022-08-19T10:49:27;24.60;;;13.90;;
4486;SDS011;2256;48.740;9.106;2022-08-19T10:51:56;19.37;;;13.97;;
4486;SDS011;2256;48.740;9.106;2022-08-19T10:54:40;20.40;;;12.83;;
4486;SDS011;2256;48.740;9.106;2022-08-19T10:57:25;23.20;;;12.97;;
4486;SDS011;2256;48.740;9.106;2022-08-19T10:59:54;25.67;;;13.50;;
4486;SDS011;2256;48.740;9.106;2022-08-19T11:02:21;21.63;;;12.70;;
4486;SDS011;2256;48.740;9.106;2022-08-19T11:04:48;27.73;;;13.60;;
4486;SDS011;2256;48.740;9.106;2022-08-19T11:07:17;24.53;;;14.60;;
4486;SDS011;2256;48.740;9.106;2022-08-19T11:09:46;23.60;;;14.00;;
4486;SDS011;2256;48.740;9.106;2022-08-19T11:12:12;29.03;;;13.90;;
4486;SDS011;2256;48.740;9.106;2022-08-19T11:14:40;30.23;;;12.50;;
4486;SDS011;2256;48.740;9.106;2022-08-19T11:17:07;22.73;;;13.07;;
4486;SDS011;2256;48.740;9.106;2022-08-19T11:19:35;22.57;;;11.97;;
4486;SDS011;2256;48.740;9.106;2022-08-19T11:22:02;17.73;;;12.13;;
4486;SDS011;2256;48.740;9.106;2022-08-19T11:24:30;19.47;;;11.63;;
4486;SDS011;2256;48.740;9.106;2022-08-19T11:27:01;19.00;;;11.27;;
4486;SDS011;2256;48.740;9.106;2022-08-19T11:29:30;13.27;;;10.73;;
4486;SDS011;2256;48.740;9.106;2022-08-19T11:31:59;18.67;;;10.80;;
4486;SDS011;2256;48.740;9.106;2022-08-19T11:34:28;18.03;;;11.10;;
4486;SDS011;2256;48.740;9.106;2022-08-19T11:36:56;21.93;;;11.80;;
4486;SDS011;2256;48.740;9.106;2022-08-19T11:39:24;25.87;;;13.27;;
4486;SDS011;2256;48.740;9.106;2022-08-19T11:41:53;27.43;;;12.30;;
4486;SDS011;2256;48.740;9.106;2022-08-19T11:44:21;25.43;;;12.97;;
4486;SDS011;2256;48.740;9.106;2022-08-19T11:46:47;15.63;;;11.00;;
4486;SDS011;2256;48.740;9.106;2022-08-19T11:49:15;22.50;;;10.97;;
4486;SDS011;2256;48.740;9.106;2022-08-19T11:51:43;17.30;;;11.50;;
4486;SDS011;2256;48.740;9.106;2022-08-19T11:54:11;17.80;;;10.67;;
4486;SDS011;2256;48.740;9.106;2022-08-19T11:56:41;18.90;;;10.97;;
4486;SDS011;2256;48.740;9.106;2022-08-19T11:59:09;25.40;;;12.80;;
4486;SDS011;2256;48.740;9.106;2022-08-19T12:01:36;18.10;;;10.80;;
4486;SDS011;2256;48.740;9.106;2022-08-19T12:04:05;19.80;;;10.70;;
4486;SDS011;2256;48.740;9.106;2022-08-19T12:06:32;15.47;;;10.27;;
4486;SDS011;2256;48.740;9.106;2022-08-19T12:09:00;15.50;;;9.60;;
4486;SDS011;2256;48.740;9.106;2022-08-19T12:11:32;14.73;;;10.00;;
4486;SDS011;2256;48.740;9.106;2022-08-19T12:13:59;20.30;;;11.20;;
4486;SDS011;2256;48.740;9.106;2022-08-19T12:16:28;15.87;;;10.30;;
4486;SDS011;2256;48.740;9.106;2022-08-19T12:18:56;23.03;;;10.80;;
4486;SDS011;2256;48.740;9.106;2022-08-19T12:21:28;19.60;;;10.83;;
4486;SDS011;2256;48.740;9.106;2022-08-19T12:23:56;20.70;;;9.57;;
4486;SDS011;2256;48.740;9.106;2022-08-19T12:26:24;16.60;;;9.83;;
4486;SDS011;2256;48.740;9.106;2022-08-19T12:28:52;13.60;;;9.80;;
4486;SDS011;2256;48.740;9.106;2022-08-19T12:31:20;14.17;;;9.23;;
4486;SDS011;2256;48.740;9.106;2022-08-19T12:33:48;17.93;;;9.47;;
4486;SDS011;2256;48.740;9.106;2022-08-19T12:36:17;17.77;;;9.73;;
4486;SDS011;2256;48.740;9.106;2022-08-19T12:38:44;17.60;;;9.47;;
4486;SDS011;2256;48.740;9.106;2022-08-19T12:41:12;16.20;;;10.30;;
4486;SDS011;2256;48.740;9.106;2022-08-19T12:43:42;16.10;;;9.30;;
4486;SDS011;2256;48.740;9.106;2022-08-19T12:46:09;12.53;;;9.10;;
4486;SDS011;2256;48.740;9.106;2022-08-19T12:48:37;14.73;;;8.60;;
4486;SDS011;2256;48.740;9.106;2022-08-19T12:51:08;12.97;;;8.40;;
4486;SDS011;2256;48.740;9.106;2022-08-19T12:53:37;13.60;;;8.87;;
4486;SDS011;2256;48.740;9.106;2022-08-19T12:56:04;20.73;;;9.70;;
4486;SDS011;2256;48.740;9.106;2022-08-19T12:58:31;15.70;;;9.10;;
4486;SDS011;2256;48.740;9.106;2022-08-19T13:00:59;15.83;;;9.30;;
4486;SDS011;2256;48.740;9.106;2022-08-19T13:03:26;11.77;;;9.10;;
4486;SDS011;2256;48.740;9.106;2022-08-19T13:05:54;16.50;;;9.77;;
4486;SDS011;2256;48.740;9.106;2022-08-19T13:08:22;14.13;;;9.40;;
4486;SDS011;2256;48.740;9.106;2022-08-19T13:10:49;12.17;;;9.50;;
4486;SDS011;2256;48.740;9.106;2022-08-19T13:13:16;13.63;;;9.17;;
4486;SDS011;2256;48.740;9.106;2022-08-19T13:15:43;20.33;;;9.30;;
4486;SDS011;2256;48.740;9.106;2022-08-19T13:18:10;13.03;;;9.57;;
4486;SDS011;2256;48.740;9.106;2022-08-19T13:20:38;14.40;;;8.70;;
4486;SDS011;2256;48.740;9.106;2022-08-19T13:23:06;19.40;;;11.43;;
4486;SDS011;2256;48.740;9.106;2022-08-19T13:25:34;23.77;;;15.03;;
4486;SDS011;2256;48.740;9.106;2022-08-19T13:28:02;29.73;;;16.53;;
4486;SDS011;2256;48.740;9.106;2022-08-19T13:30:31;32.57;;;17.20;;
4486;SDS011;2256;48.740;9.106;2022-08-19T13:33:15;30.07;;;17.60;;
4486;SDS011;2256;48.740;9.106;2022-08-19T13:35:45;35.50;;;19.40;;
4486;SDS011;2256;48.740;9.106;2022-08-19T13:38:14;34.57;;;19.33;;
4486;SDS011;2256;48.740;9.106;2022-08-19T13:40:43;36.83;;;22.70;;
4486;SDS011;2256;48.740;9.106;2022-08-19T13:43:11;37.27;;;20.50;;
4486;SDS011;2256;48.740;9.106;2022-08-19T13:45:39;36.50;;;22.93;;
4486;SDS011;2256;48.740;9.106;2022-08-19T13:48:06;44.37;;;22.33;;
4486;SDS011;2256;48.740;9.106;2022-08-19T13:50:35;36.57;;;22.63;;
4486;SDS011;2256;48.740;9.106;2022-08-19T13:53:05;38.60;;;21.00;;
4486;SDS011;2256;48.740;9.106;2022-08-19T13:55:32;33.63;;;22.10;;
4486;SDS011;2256;48.740;9.106;2022-08-19T13:58:01;36.90;;;22.90;;
4486;SDS011;2256;48.740;9.106;2022-08-19T14:00:29;33.17;;;22.63;;
4486;SDS011;2256;48.740;9.106;2022-08-19T14:02:58;33.53;;;21.70;;
4486;SDS011;2256;48.740;9.106;2022-08-19T14:05:25;35.77;;;21.00;;
4486;SDS011;2256;48.740;9.106;2022-08-19T14:07:53;33.33;;;19.20;;
4486;SDS011;2256;48.740;9.106;2022-08-19T14:10:20;30.13;;;19.13;;
4486;SDS011;2256;48.740;9.106;2022-08-19T14:12:48;34.13;;;21.70;;
4486;SDS011;2256;48.740;9.106;2022-08-19T14:15:16;34.10;;;19.80;;
4486;SDS011;2256;48.740;9.106;2022-08-19T14:17:43;39.50;;;21.60;;
4486;SDS011;2256;48.740;9.106;2022-08-19T14:20:13;33.43;;;21.80;;
4486;SDS011;2256;48.740;9.106;2022-08-19T14:22:41;41.60;;;20.70;;
4486;SDS011;2256;48.740;9.106;2022-08-19T14:25:09;30.23;;;19.00;;
4486;SDS011;2256;48.740;9.106;2022-08-19T14:27:39;34.77;;;19.67;;
4486;SDS011;2256;48.740;9.106;2022-08-19T14:30:08;30.37;;;19.07;;
4486;SDS011;2256;48.740;9.106;2022-08-19T14:32:37;27.60;;;18.60;;
4486;SDS011;2256;48.740;9.106;2022-08-19T14:35:05;29.97;;;19.87;;
4486;SDS011;2256;48.740;9.106;2022-08-19T14:37:33;28.67;;;19.10;;
4486;SDS011;2256;48.740;9.106;2022-08-19T14:40:00;30.93;;;20.23;;
4486;SDS011;2256;48.740;9.106;2022-08-19T14:42:27;28.60;;;19.67;;
4486;SDS011;2256;48.740;9.106;2022-08-19T14:44:56;33.87;;;20.47;;
4486;SDS011;2256;48.740;9.106;2022-08-19T14:47:24;35.50;;;20.10;;
4486;SDS011;2256;48.740;9.106;2022-08-19T14:49:53;32.43;;;19.07;;
4486;SDS011;2256;48.740;9.106;2022-08-19T14:52:20;29.50;;;17.00;;
4486;SDS011;2256;48.740;9.106;2022-08-19T14:54:47;28.80;;;18.73;;
4486;SDS011;2256;48.740;9.106;2022-08-19T14:57:14;26.37;;;17.70;;